createdAt,value
2023-03-13T00:01:38.192Z,0.10
2023-03-13T00:04:09.365Z,0.10
2023-03-13T00:06:39.923Z,0.10
2023-03-13T00:09:10.812Z,0.10
2023-03-13T00:11:39.901Z,0.10
2023-03-13T00:14:10.443Z,0.10
2023-03-13T00:16:40.487Z,0.10
2023-03-13T00:19:11.381Z,0.10
2023-03-13T00:21:41.181Z,0.97
2023-03-13T00:24:11.968Z,0.20
2023-03-13T00:26:41.008Z,0.10
2023-03-13T00:29:10.023Z,0.10
2023-03-13T00:31:39.076Z,0.10
2023-03-13T00:34:08.106Z,0.10
2023-03-13T00:36:40.856Z,0.10
2023-03-13T00:39:10.572Z,0.13
2023-03-13T00:41:39.959Z,0.10
2023-03-13T00:44:09.183Z,0.10
2023-03-13T00:46:38.564Z,0.10
2023-03-13T00:49:07.990Z,0.10
2023-03-13T00:51:37.002Z,0.10
2023-03-13T00:54:07.425Z,0.10
2023-03-13T00:56:37.039Z,3.20
2023-03-13T00:59:06.280Z,3.20
2023-03-13T01:01:36.974Z,4.13
2023-03-13T01:04:07.807Z,3.03
2023-03-13T01:06:40.413Z,3.30
2023-03-13T01:09:12.691Z,3.57
2023-03-13T01:11:43.924Z,3.73
2023-03-13T01:14:15.895Z,4.30
2023-03-13T01:16:45.193Z,3.60
2023-03-13T01:19:16.651Z,4.17
2023-03-13T01:21:47.580Z,4.00
2023-03-13T01:24:19.181Z,3.57
2023-03-13T01:26:48.466Z,4.07
2023-03-13T01:29:18.186Z,4.23
2023-03-13T01:31:47.506Z,3.83
2023-03-13T01:34:16.517Z,3.83
2023-03-13T01:36:46.719Z,3.80
2023-03-13T01:39:17.254Z,4.03
2023-03-13T01:41:46.329Z,4.33
2023-03-13T01:44:23.397Z,3.80
2023-03-13T01:46:53.034Z,3.87
2023-03-13T01:49:33.251Z,4.13
2023-03-13T01:52:19.466Z,4.20
2023-03-13T01:55:14.842Z,4.30
2023-03-13T01:57:49.372Z,4.17
2023-03-13T02:00:23.785Z,4.50
2023-03-13T02:02:56.329Z,4.83
2023-03-13T02:05:28.450Z,3.93
2023-03-13T02:08:01.966Z,4.40
2023-03-13T02:10:45.126Z,4.67
2023-03-13T02:13:17.332Z,5.13
2023-03-13T02:15:47.303Z,4.10
2023-03-13T02:18:17.236Z,5.10
2023-03-13T02:20:51.690Z,3.93
2023-03-13T02:23:28.817Z,3.70
2023-03-13T02:25:59.480Z,4.70
2023-03-13T02:28:39.299Z,4.70
2023-03-13T02:31:13.209Z,5.23
2023-03-13T02:33:43.958Z,3.40
2023-03-13T02:36:17.761Z,5.00
2023-03-13T02:38:54.833Z,4.23
2023-03-13T02:41:26.571Z,4.73
2023-03-13T02:43:57.352Z,4.77
2023-03-13T02:46:26.567Z,4.73
2023-03-13T02:48:57.656Z,4.07
2023-03-13T02:51:33.637Z,4.87
2023-03-13T02:54:07.685Z,4.27
2023-03-13T02:56:39.965Z,3.43
2023-03-13T02:59:10.667Z,3.70
2023-03-13T03:01:42.296Z,3.80
2023-03-13T03:04:11.466Z,3.30
2023-03-13T03:06:40.930Z,3.47
2023-03-13T03:09:10.264Z,3.50
2023-03-13T03:11:41.260Z,3.97
2023-03-13T03:14:14.955Z,3.27
2023-03-13T03:16:47.235Z,3.57
2023-03-13T03:19:16.627Z,3.53
2023-03-13T03:21:45.719Z,3.80
2023-03-13T03:24:14.704Z,4.03
2023-03-13T03:26:45.168Z,3.17
2023-03-13T03:29:21.192Z,4.07
2023-03-13T03:31:53.251Z,3.07
2023-03-13T03:34:22.871Z,3.63
2023-03-13T03:36:52.517Z,3.87
2023-03-13T03:39:21.686Z,3.93
2023-03-13T03:41:52.685Z,3.37
2023-03-13T03:44:21.948Z,3.47
2023-03-13T03:46:59.986Z,3.20
2023-03-13T03:49:32.402Z,3.83
2023-03-13T03:52:01.729Z,3.33
2023-03-13T03:54:36.167Z,3.53
2023-03-13T03:57:07.064Z,2.43
2023-03-13T03:59:37.026Z,3.53
2023-03-13T04:02:09.487Z,4.57
2023-03-13T04:04:38.912Z,3.80
2023-03-13T04:07:30.930Z,3.37
2023-03-13T04:10:01.170Z,3.50
2023-03-13T04:12:38.900Z,3.83
2023-03-13T04:15:08.867Z,3.70
2023-03-13T04:17:39.310Z,2.80
2023-03-13T04:20:11.273Z,2.63
2023-03-13T04:22:40.624Z,3.87
2023-03-13T04:25:10.881Z,2.90
2023-03-13T04:27:41.639Z,3.90
2023-03-13T04:30:12.618Z,2.90
2023-03-13T04:32:51.326Z,3.13
2023-03-13T04:35:45.116Z,3.77
2023-03-13T04:38:26.695Z,3.33
2023-03-13T04:41:04.552Z,3.30
2023-03-13T04:44:10.416Z,2.93
2023-03-13T04:46:39.384Z,3.00
2023-03-13T04:49:16.739Z,3.80
2023-03-13T04:51:57.898Z,3.17
2023-03-13T04:54:50.951Z,3.23
2023-03-13T04:57:31.231Z,4.00
2023-03-13T05:00:28.058Z,2.53
2023-03-13T05:03:13.033Z,3.23
2023-03-13T05:05:53.113Z,2.90
2023-03-13T05:08:57.172Z,3.40
2023-03-13T05:11:50.349Z,2.87
2023-03-13T05:14:28.214Z,3.77
2023-03-13T05:17:18.871Z,3.47
2023-03-13T05:20:11.205Z,2.87
2023-03-13T05:22:49.952Z,4.03
2023-03-13T05:25:29.730Z,3.50
2023-03-13T05:28:24.634Z,1.93
2023-03-13T05:31:13.310Z,2.40
2023-03-13T05:33:56.462Z,3.47
2023-03-13T05:36:44.654Z,2.93
2023-03-13T05:39:39.927Z,2.63
2023-03-13T05:42:21.263Z,2.40
2023-03-13T05:45:03.444Z,2.53
2023-03-13T05:48:07.586Z,2.13
2023-03-13T05:50:55.990Z,2.07
2023-03-13T05:53:43.560Z,2.20
2023-03-13T05:56:32.481Z,2.37
2023-03-13T05:59:21.816Z,3.20
2023-03-13T06:02:12.102Z,2.97
2023-03-13T06:04:45.784Z,2.23
2023-03-13T06:07:16.495Z,2.27
2023-03-13T06:09:46.095Z,1.97
2023-03-13T06:12:16.047Z,1.73
2023-03-13T06:14:45.495Z,1.87
2023-03-13T06:17:17.171Z,1.83
2023-03-13T06:19:47.107Z,2.67
2023-03-13T06:22:18.785Z,2.60
2023-03-13T06:24:49.483Z,2.60
2023-03-13T06:27:18.740Z,1.70
2023-03-13T06:29:47.757Z,1.83
2023-03-13T06:32:16.952Z,1.30
2023-03-13T06:34:46.044Z,1.83
2023-03-13T06:37:16.716Z,1.40
2023-03-13T06:39:45.842Z,0.93
2023-03-13T06:42:14.855Z,1.10
2023-03-13T06:44:44.705Z,1.60
2023-03-13T06:47:15.530Z,0.90
2023-03-13T06:49:44.753Z,1.07
2023-03-13T06:52:13.808Z,1.60
2023-03-13T06:54:44.256Z,1.00
2023-03-13T06:57:13.330Z,0.93
2023-03-13T06:59:42.348Z,0.80
2023-03-13T07:02:12.439Z,0.80
2023-03-13T07:04:43.021Z,1.30
2023-03-13T07:07:25.597Z,1.10
2023-03-13T07:10:01.648Z,1.00
2023-03-13T07:12:30.832Z,0.70
2023-03-13T07:14:59.828Z,0.87
2023-03-13T07:17:28.864Z,1.03
2023-03-13T07:19:58.034Z,0.60
2023-03-13T07:22:27.059Z,0.70
2023-03-13T07:24:56.074Z,0.90
2023-03-13T07:27:26.693Z,0.10
2023-03-13T07:29:55.742Z,0.10
2023-03-13T07:32:24.920Z,0.10
2023-03-13T07:34:54.022Z,0.10
2023-03-13T07:37:23.052Z,0.00
2023-03-13T07:39:52.104Z,0.10
2023-03-13T07:42:21.112Z,0.10
2023-03-13T07:44:51.498Z,0.10
2023-03-13T07:47:20.508Z,0.00
2023-03-13T07:49:49.627Z,0.10
2023-03-13T07:52:18.987Z,0.10
2023-03-13T07:54:47.994Z,0.10
2023-03-13T07:57:17.048Z,0.10
2023-03-13T07:59:46.052Z,0.10
2023-03-13T08:02:16.935Z,0.20
2023-03-13T08:04:46.180Z,0.00
2023-03-13T08:07:15.311Z,0.00
2023-03-13T08:09:44.531Z,0.10
2023-03-13T08:12:13.623Z,0.10
2023-03-13T08:14:42.654Z,0.10
2023-03-13T08:17:11.720Z,0.00
2023-03-13T08:19:42.072Z,0.20
2023-03-13T08:22:11.094Z,0.10
2023-03-13T08:24:40.082Z,0.10
2023-03-13T08:27:09.180Z,0.00
2023-03-13T08:29:38.276Z,0.10
2023-03-13T08:32:07.802Z,0.00
2023-03-13T08:34:36.909Z,0.10
2023-03-13T08:37:07.347Z,0.10
2023-03-13T08:39:36.775Z,0.10
2023-03-13T08:42:06.063Z,0.10
2023-03-13T08:44:35.047Z,0.00
2023-03-13T08:47:06.634Z,0.10
2023-03-13T08:49:35.982Z,0.07
2023-03-13T08:52:08.061Z,0.10
2023-03-13T08:54:37.274Z,0.00
2023-03-13T08:57:06.301Z,0.00
2023-03-13T08:59:35.353Z,0.00
2023-03-13T09:02:04.515Z,0.10
2023-03-13T09:04:33.547Z,0.10
2023-03-13T09:07:02.616Z,0.20
2023-03-13T09:09:32.979Z,0.10
2023-03-13T09:12:02.012Z,0.10
2023-03-13T09:14:31.101Z,0.00
2023-03-13T09:17:00.245Z,0.10
2023-03-13T09:19:29.285Z,0.10
2023-03-13T09:21:58.291Z,0.03
2023-03-13T09:24:27.894Z,0.10
2023-03-13T09:27:01.464Z,0.10
2023-03-13T09:29:30.702Z,0.05
2023-03-13T09:31:59.905Z,0.00
2023-03-13T09:34:28.922Z,0.00
2023-03-13T09:36:57.958Z,0.00
2023-03-13T09:39:27.037Z,0.10
2023-03-13T09:42:07.765Z,0.00
2023-03-13T09:44:46.668Z,0.07
2023-03-13T09:47:23.492Z,0.10
2023-03-13T09:49:56.758Z,0.10
2023-03-13T09:52:27.534Z,0.10
2023-03-13T09:55:00.636Z,0.00
2023-03-13T09:57:36.782Z,0.20
2023-03-13T10:00:12.876Z,0.00
2023-03-13T10:02:45.618Z,0.10
2023-03-13T10:05:21.416Z,0.00
2023-03-13T10:07:53.852Z,0.00
2023-03-13T10:10:32.973Z,0.52
2023-03-13T10:13:12.964Z,0.00
2023-03-13T10:15:46.672Z,0.10
2023-03-13T10:18:21.693Z,0.00
2023-03-13T10:20:52.425Z,0.10
2023-03-13T10:23:28.427Z,0.00
2023-03-13T10:25:57.562Z,0.37
2023-03-13T10:28:28.170Z,0.00
2023-03-13T10:31:04.797Z,0.00
2023-03-13T10:33:35.705Z,0.10
2023-03-13T10:36:11.052Z,0.00
2023-03-13T10:38:50.440Z,0.00
2023-03-13T10:41:27.936Z,0.00
2023-03-13T10:44:02.226Z,0.00
2023-03-13T10:46:34.228Z,0.10
2023-03-13T10:49:05.065Z,0.00
2023-03-13T10:51:39.209Z,0.10
2023-03-13T10:54:16.970Z,0.00
2023-03-13T10:56:46.131Z,1.98
2023-03-13T10:59:27.687Z,2.10
2023-03-13T11:02:01.899Z,2.05
2023-03-13T11:04:33.744Z,1.88
2023-03-13T11:07:07.654Z,2.40
2023-03-13T11:09:36.682Z,2.22
2023-03-13T11:12:10.706Z,2.03
2023-03-13T11:14:42.624Z,1.20
2023-03-13T11:17:24.582Z,1.95
2023-03-13T11:20:04.130Z,1.98
2023-03-13T11:22:49.407Z,2.50
2023-03-13T11:25:24.157Z,1.77
2023-03-13T11:28:24.109Z,1.50
2023-03-13T11:31:18.079Z,2.20
2023-03-13T11:33:57.422Z,1.45
2023-03-13T11:36:34.838Z,1.00
2023-03-13T11:39:17.062Z,1.90
2023-03-13T11:41:59.877Z,1.85
2023-03-13T11:44:40.503Z,1.17
2023-03-13T11:47:33.252Z,1.60
2023-03-13T11:50:19.642Z,1.38
2023-03-13T11:52:59.837Z,1.85
2023-03-13T11:55:41.977Z,1.80
2023-03-13T11:58:31.201Z,1.35
2023-03-13T12:01:05.947Z,1.00
2023-03-13T12:03:41.791Z,1.20
2023-03-13T12:06:28.416Z,1.00
2023-03-13T12:09:04.223Z,0.95
2023-03-13T12:11:43.499Z,1.00
2023-03-13T12:14:18.330Z,1.35
2023-03-13T12:16:52.881Z,2.03
2023-03-13T12:19:28.548Z,1.42
2023-03-13T12:22:02.978Z,1.30
2023-03-13T12:24:37.885Z,1.08
2023-03-13T12:27:16.510Z,0.93
2023-03-13T12:29:54.441Z,1.60
2023-03-13T12:32:30.479Z,1.58
2023-03-13T12:35:08.753Z,1.38
2023-03-13T12:37:44.998Z,1.15
2023-03-13T12:40:23.689Z,1.17
2023-03-13T12:42:59.111Z,1.20
2023-03-13T12:45:29.778Z,1.27
2023-03-13T12:48:18.715Z,1.20
2023-03-13T12:51:03.985Z,1.13
2023-03-13T12:54:04.125Z,0.90
2023-03-13T12:56:48.313Z,0.95
2023-03-13T12:59:20.397Z,1.38
2023-03-13T13:01:52.203Z,1.15
2023-03-13T13:04:24.915Z,1.05
2023-03-13T13:07:01.743Z,1.00
2023-03-13T13:09:33.564Z,0.90
2023-03-13T13:12:05.065Z,1.30
2023-03-13T13:15:04.045Z,0.90
2023-03-13T13:17:58.341Z,1.45
2023-03-13T13:20:39.518Z,2.83
2023-03-13T13:23:39.239Z,2.45
2023-03-13T13:26:47.093Z,1.05
2023-03-13T13:29:58.752Z,1.10
2023-03-13T13:32:47.061Z,1.20
2023-03-13T13:35:33.680Z,1.35
2023-03-13T13:38:29.040Z,1.00
2023-03-13T13:41:05.400Z,0.85
2023-03-13T13:43:36.380Z,1.00
2023-03-13T13:46:18.100Z,0.82
2023-03-13T13:48:47.320Z,1.10
2023-03-13T13:51:34.693Z,1.00
2023-03-13T13:54:07.231Z,0.90
2023-03-13T13:56:49.524Z,0.88
2023-03-13T13:59:34.266Z,0.90
2023-03-13T14:02:20.836Z,1.00
2023-03-13T14:05:01.515Z,0.90
2023-03-13T14:07:38.571Z,1.20
2023-03-13T14:10:17.924Z,0.70
2023-03-13T14:12:53.257Z,1.10
2023-03-13T14:15:23.647Z,1.30
2023-03-13T14:17:54.431Z,0.80
2023-03-13T14:20:32.733Z,1.10
2023-03-13T14:23:06.122Z,0.70
2023-03-13T14:25:53.163Z,1.00
2023-03-13T14:28:25.421Z,1.00
2023-03-13T14:30:57.572Z,1.00
2023-03-13T14:33:27.875Z,0.98
2023-03-13T14:35:57.768Z,0.90
2023-03-13T14:38:29.926Z,0.80
2023-03-13T14:40:59.296Z,1.10
2023-03-13T14:43:34.530Z,0.80
2023-03-13T14:46:15.766Z,0.95
2023-03-13T14:48:45.037Z,0.70
2023-03-13T14:51:22.837Z,0.70
2023-03-13T14:53:56.667Z,0.57
2023-03-13T14:56:34.908Z,1.10
2023-03-13T14:59:18.001Z,0.77
2023-03-13T15:01:47.530Z,0.85
2023-03-13T15:04:16.725Z,1.35
2023-03-13T15:06:46.113Z,0.80
2023-03-13T15:09:26.413Z,1.13
2023-03-13T15:12:01.190Z,0.90
2023-03-13T15:14:37.810Z,0.63
2023-03-13T15:17:14.946Z,0.85
2023-03-13T15:19:44.790Z,1.55
2023-03-13T15:22:16.635Z,0.70
2023-03-13T15:24:59.709Z,1.00
2023-03-13T15:27:34.030Z,1.52
2023-03-13T15:30:05.051Z,0.70
2023-03-13T15:32:36.712Z,0.80
2023-03-13T15:35:25.599Z,1.40
2023-03-13T15:37:55.157Z,0.70
2023-03-13T15:40:25.324Z,1.08
2023-03-13T15:42:54.782Z,1.10
2023-03-13T15:45:25.368Z,1.05
2023-03-13T15:47:54.861Z,0.60
2023-03-13T15:50:29.584Z,0.75
2023-03-13T15:53:00.714Z,0.70
2023-03-13T15:55:30.987Z,0.90
2023-03-13T15:58:00.321Z,0.90
2023-03-13T16:00:30.845Z,0.90
2023-03-13T16:03:03.960Z,0.52
2023-03-13T16:05:33.284Z,0.82
2023-03-13T16:08:02.322Z,0.80
2023-03-13T16:10:33.087Z,0.43
2023-03-13T16:13:03.374Z,0.50
2023-03-13T16:15:33.858Z,0.95
2023-03-13T16:18:03.512Z,0.80
2023-03-13T16:20:34.027Z,0.70
2023-03-13T16:23:04.122Z,0.85
2023-03-13T16:25:33.818Z,0.60
2023-03-13T16:28:02.860Z,0.70
2023-03-13T16:30:34.732Z,0.73
2023-03-13T16:33:04.317Z,0.68
2023-03-13T16:35:33.707Z,0.80
2023-03-13T16:38:03.627Z,0.60
2023-03-13T16:40:34.649Z,0.77
2023-03-13T16:43:03.829Z,0.70
2023-03-13T16:45:34.346Z,0.82
2023-03-13T16:48:03.516Z,0.50
2023-03-13T16:50:36.788Z,0.75
2023-03-13T16:53:06.394Z,0.60
2023-03-13T16:55:37.245Z,0.68
2023-03-13T16:58:06.825Z,0.88
2023-03-13T17:00:37.286Z,0.70
2023-03-13T17:03:06.455Z,0.70
2023-03-13T17:05:35.848Z,0.70
2023-03-13T17:08:05.744Z,1.10
2023-03-13T17:10:35.249Z,0.70
2023-03-13T17:13:05.488Z,0.85
2023-03-13T17:15:36.085Z,0.70
2023-03-13T17:18:05.513Z,1.00
2023-03-13T17:20:34.874Z,1.27
2023-03-13T17:23:04.104Z,0.85
2023-03-13T17:25:33.406Z,0.80
2023-03-13T17:28:02.546Z,1.00
2023-03-13T17:30:32.860Z,0.75
2023-03-13T17:33:03.424Z,0.65
2023-03-13T17:35:32.547Z,1.17
2023-03-13T17:38:01.717Z,0.80
2023-03-13T17:40:32.598Z,0.65
2023-03-13T17:43:01.902Z,0.93
2023-03-13T17:45:36.658Z,0.93
2023-03-13T17:48:12.453Z,1.02
2023-03-13T17:50:41.605Z,0.90
2023-03-13T17:53:10.742Z,0.50
2023-03-13T17:55:39.978Z,0.85
2023-03-13T17:58:09.951Z,0.70
2023-03-13T18:00:44.908Z,0.80
2023-03-13T18:03:15.574Z,0.80
2023-03-13T18:05:44.688Z,1.00
2023-03-13T18:08:13.855Z,1.25
2023-03-13T18:10:43.212Z,0.95
2023-03-13T18:13:12.475Z,0.85
2023-03-13T18:15:41.733Z,1.00
2023-03-13T18:18:18.024Z,1.00
2023-03-13T18:20:47.475Z,1.13
2023-03-13T18:23:16.580Z,1.08
2023-03-13T18:25:45.958Z,1.00
2023-03-13T18:28:15.235Z,0.80
2023-03-13T18:30:44.270Z,1.10
2023-03-13T18:33:13.470Z,0.80
2023-03-13T18:35:43.917Z,1.00
2023-03-13T18:38:13.853Z,1.05
2023-03-13T18:40:42.986Z,0.80
2023-03-13T18:43:12.373Z,1.40
2023-03-13T18:45:41.905Z,0.93
2023-03-13T18:48:12.209Z,1.17
2023-03-13T18:50:42.808Z,0.97
2023-03-13T18:53:12.082Z,0.90
2023-03-13T18:55:41.180Z,1.00
2023-03-13T18:58:11.628Z,1.17
2023-03-13T19:00:41.159Z,1.27
2023-03-13T19:03:10.564Z,1.30
2023-03-13T19:05:40.117Z,0.93
2023-03-13T19:08:12.532Z,1.40
2023-03-13T19:10:42.147Z,1.53
2023-03-13T19:13:11.581Z,1.10
2023-03-13T19:15:40.743Z,1.37
2023-03-13T19:18:12.853Z,1.30
2023-03-13T19:20:41.944Z,1.37
2023-03-13T19:23:13.069Z,1.23
2023-03-13T19:25:42.268Z,1.30
2023-03-13T19:28:11.694Z,1.40
2023-03-13T19:30:43.783Z,1.33
2023-03-13T19:33:13.047Z,1.60
2023-03-13T19:35:42.257Z,1.47
2023-03-13T19:38:14.025Z,1.10
2023-03-13T19:40:43.089Z,1.23
2023-03-13T19:43:12.269Z,1.30
2023-03-13T19:45:41.801Z,1.20
2023-03-13T19:48:11.096Z,1.57
2023-03-13T19:50:40.280Z,1.73
2023-03-13T19:53:09.482Z,1.10
2023-03-13T19:55:39.978Z,1.60
2023-03-13T19:58:09.324Z,1.80
2023-03-13T20:00:38.835Z,1.97
2023-03-13T20:03:08.061Z,1.43
2023-03-13T20:05:37.109Z,1.80
2023-03-13T20:08:06.357Z,1.83
2023-03-13T20:10:35.639Z,1.70
2023-03-13T20:13:06.295Z,1.53
2023-03-13T20:15:35.509Z,1.83
2023-03-13T20:18:05.012Z,1.27
2023-03-13T20:20:34.301Z,2.43
2023-03-13T20:23:03.437Z,1.83
2023-03-13T20:25:32.948Z,2.27
2023-03-13T20:28:02.073Z,1.50
2023-03-13T20:30:32.677Z,2.17
2023-03-13T20:33:01.953Z,2.27
2023-03-13T20:35:31.512Z,2.30
2023-03-13T20:38:01.830Z,1.80
2023-03-13T20:40:31.011Z,1.93
2023-03-13T20:43:00.904Z,1.60
2023-03-13T20:45:32.247Z,1.97
2023-03-13T20:48:01.425Z,1.90
2023-03-13T20:50:30.563Z,2.07
2023-03-13T20:52:59.660Z,1.80
2023-03-13T20:55:30.340Z,1.63
2023-03-13T20:57:59.584Z,1.17
2023-03-13T21:00:28.751Z,1.80
2023-03-13T21:02:59.473Z,2.00
2023-03-13T21:05:29.033Z,1.57
2023-03-13T21:07:58.345Z,1.90
2023-03-13T21:10:27.574Z,1.97
2023-03-13T21:12:56.617Z,1.53
2023-03-13T21:15:25.830Z,2.10
2023-03-13T21:17:56.357Z,2.07
2023-03-13T21:20:27.237Z,1.77
2023-03-13T21:22:56.588Z,1.73
2023-03-13T21:25:26.008Z,1.57
2023-03-13T21:27:55.175Z,2.10
2023-03-13T21:30:24.593Z,1.43
2023-03-13T21:32:54.342Z,1.77
2023-03-13T21:35:23.591Z,1.50
2023-03-13T21:37:54.139Z,1.83
2023-03-13T21:40:23.311Z,1.40
2023-03-13T21:42:52.524Z,1.47
2023-03-13T21:45:21.935Z,1.03
2023-03-13T21:47:51.187Z,1.43
2023-03-13T21:52:56.472Z,1.60
2023-03-13T21:55:25.675Z,1.50
2023-03-13T21:57:54.937Z,1.33
2023-03-13T22:00:24.600Z,1.20
2023-03-13T22:02:53.680Z,1.27
2023-03-13T22:05:22.844Z,1.43
2023-03-13T22:07:52.068Z,1.43
2023-03-13T22:10:22.659Z,1.70
2023-03-13T22:12:51.814Z,1.03
2023-03-13T22:15:21.132Z,1.40
2023-03-13T22:17:50.266Z,1.43
2023-03-13T22:20:19.549Z,1.60
2023-03-13T22:22:48.763Z,1.30
2023-03-13T22:25:18.249Z,1.43
2023-03-13T22:27:48.848Z,1.10
2023-03-13T22:30:18.263Z,1.43
2023-03-13T22:32:47.473Z,1.30
2023-03-13T22:35:16.746Z,1.57
2023-03-13T22:37:46.188Z,1.67
2023-03-13T22:40:15.471Z,1.13
2023-03-13T22:42:44.599Z,1.20
2023-03-13T22:45:15.942Z,1.00
2023-03-13T22:47:45.257Z,1.20
2023-03-13T22:50:15.761Z,1.60
2023-03-13T22:52:45.101Z,1.53
2023-03-13T22:55:14.620Z,1.10
2023-03-13T22:57:43.792Z,1.17
2023-03-13T23:00:16.132Z,1.80
2023-03-13T23:02:45.355Z,0.80
2023-03-13T23:05:14.602Z,1.10
2023-03-13T23:07:44.543Z,1.20
2023-03-13T23:10:14.017Z,1.30
2023-03-13T23:12:43.389Z,1.30
2023-03-13T23:15:13.201Z,1.30
2023-03-13T23:17:43.780Z,1.10
2023-03-13T23:20:13.975Z,1.03
2023-03-13T23:22:44.192Z,1.23
2023-03-13T23:25:14.808Z,1.30
2023-03-13T23:27:44.060Z,1.37
2023-03-13T23:30:15.612Z,1.50
2023-03-13T23:32:48.203Z,1.53
2023-03-13T23:35:17.879Z,1.63
2023-03-13T23:37:50.845Z,1.50
2023-03-13T23:40:20.868Z,1.63
2023-03-13T23:42:51.728Z,1.67
2023-03-13T23:45:21.329Z,0.97
2023-03-13T23:47:54.549Z,1.30
2023-03-13T23:50:24.102Z,1.57
2023-03-13T23:52:53.138Z,1.13
2023-03-13T23:55:22.258Z,1.47
2023-03-13T23:57:51.668Z,1.43
